Time;durP1;ratioP1;P1;durP2;ratioP2;P2;SDS_P1;SDS_P2;PMS_P1;PMS_P2;Temp;Humidity;BMP_temperature;BMP_pressure;BME280_temperature;BME280_humidity;BME280_pressure;Samples;Min_cycle;Max_cycle;Signal;HPM_P1;HPM_P2
2022/05/10 00:00:12;;;;;;;9.57;7.10;;;;;;;12.20;99.03;99322.66;5031028;28;20033;-71
2022/05/10 00:02:37;;;;;;;8.70;6.82;;;;;;;12.14;99.25;99317.22;5029507;28;20509;-71
2022/05/10 00:05:04;;;;;;;8.25;7.07;;;;;;;11.96;99.83;99299.59;5029340;28;20171;-71
2022/05/10 00:07:33;;;;;;;8.63;6.88;;;;;;;12.10;99.24;99313.22;5029069;28;20021;-71
2022/05/10 00:09:59;;;;;;;9.82;7.20;;;;;;;12.05;99.20;99314.66;5031632;28;20072;-71
2022/05/10 00:12:25;;;;;;;11.85;7.13;;;;;;;12.07;100.00;99311.75;5017819;28;20032;-71
2022/05/10 00:14:50;;;;;;;12.23;7.50;;;;;;;11.97;100.00;99312.13;5025351;28;20025;-71
2022/05/10 00:17:31;;;;;;;10.10;7.60;;;;;;;11.94;100.00;99312.50;5031160;28;20052;-71
2022/05/10 00:19:57;;;;;;;12.80;8.10;;;;;;;11.90;100.00;99303.09;5029143;28;20045;-71
2022/05/10 00:22:23;;;;;;;12.77;7.22;;;;;;;11.86;100.00;99309.94;5031647;28;20021;-71
2022/05/10 00:24:50;;;;;;;12.18;6.78;;;;;;;11.71;100.00;99306.47;5042023;28;20044;-71
2022/05/10 00:27:15;;;;;;;10.68;7.50;;;;;;;11.77;100.00;99316.53;5054948;28;20099;-71
2022/05/10 00:29:40;;;;;;;11.73;9.10;;;;;;;11.73;100.00;99307.13;5049533;28;20025;-71
2022/05/10 00:32:06;;;;;;;11.20;8.98;;;;;;;11.65;100.00;99289.13;5046775;28;20017;-71
2022/05/10 00:34:31;;;;;;;13.02;8.23;;;;;;;11.84;100.00;99304.72;5047971;28;20026;-70
2022/05/10 00:36:57;;;;;;;9.43;7.90;;;;;;;11.81;100.00;99306.97;5045824;28;20029;-71
2022/05/10 00:39:22;;;;;;;11.52;7.68;;;;;;;11.73;100.00;99307.97;5042608;28;20032;-71
2022/05/10 00:42:15;;;;;;;16.60;8.00;;;;;;;11.65;100.00;99310.81;5053391;28;20104;-71
2022/05/10 00:44:49;;;;;;;10.30;7.70;;;;;;;11.61;100.00;99304.97;5046508;28;20022;-71
2022/05/10 00:47:46;;;;;;;12.90;8.10;;;;;;;11.59;100.00;99304.31;5041526;28;20088;-71
2022/05/10 00:50:40;;;;;;;9.30;7.07;;;;;;;11.39;100.00;99298.75;5032847;28;20073;-71
2022/05/10 00:53:22;;;;;;;8.88;6.53;;;;;;;11.27;100.00;99289.50;5034341;28;20075;-71
2022/05/10 00:56:00;;;;;;;7.47;6.43;;;;;;;11.27;100.00;99294.91;5034754;28;20021;-70
2022/05/10 00:58:31;;;;;;;8.63;6.50;;;;;;;11.26;100.00;99297.81;5030761;28;20026;-69
2022/05/10 01:00:59;;;;;;;12.38;7.03;;;;;;;11.17;100.00;99300.66;5026225;28;20165;-70
2022/05/10 01:03:30;;;;;;;13.23;7.07;;;;;;;11.11;100.00;99300.63;5040967;28;20025;-70
2022/05/10 01:06:11;;;;;;;7.55;6.43;;;;;;;11.10;100.00;99301.63;5039560;28;20021;-70
2022/05/10 01:08:39;;;;;;;9.57;6.78;;;;;;;11.06;100.00;99298.50;5042055;28;20059;-70
2022/05/10 01:11:13;;;;;;;11.90;7.38;;;;;;;11.12;100.00;99297.69;5039778;28;20041;-69
2022/05/10 01:13:38;;;;;;;9.68;7.38;;;;;;;11.12;100.00;99289.56;5039446;28;20033;-70
2022/05/10 01:16:14;;;;;;;11.25;7.30;;;;;;;11.20;100.00;99283.19;5041600;28;20399;-70
2022/05/10 01:18:40;;;;;;;17.90;7.38;;;;;;;11.15;100.00;99286.47;5030897;28;20059;-70
2022/05/10 01:21:28;;;;;;;10.38;7.70;;;;;;;11.02;100.00;99280.94;5024137;28;20529;-70
2022/05/10 01:24:08;;;;;;;8.18;6.63;;;;;;;10.97;100.00;99283.38;5037768;28;20049;-70
2022/05/10 01:26:59;;;;;;;9.50;6.95;;;;;;;10.90;100.00;99269.81;5022633;28;20735;-70
2022/05/10 01:29:28;;;;;;;10.00;7.25;;;;;;;10.86;100.00;99273.09;5039542;28;20026;-70
2022/05/10 01:34:45;;;;;;;11.25;7.45;;;;;;;10.77;100.00;99263.41;5036610;28;20047;-70
2022/05/10 01:37:19;;;;;;;10.10;7.25;;;;;;;10.70;100.00;99250.66;5046167;28;20080;-69
2022/05/10 01:39:55;;;;;;;12.13;7.30;;;;;;;10.83;100.00;99268.06;5029743;28;20079;-70
2022/05/10 01:42:40;;;;;;;10.43;7.20;;;;;;;10.73;100.00;99266.50;5033824;28;20092;-70
2022/05/10 01:45:13;;;;;;;9.90;8.02;;;;;;;10.75;100.00;99258.22;5015489;28;20021;-70
2022/05/10 01:47:55;;;;;;;9.25;7.20;;;;;;;10.65;100.00;99258.53;5028262;28;20044;-70
2022/05/10 01:50:43;;;;;;;7.47;6.35;;;;;;;10.54;100.00;99253.63;5029750;28;20033;-71
2022/05/10 01:53:41;;;;;;;9.80;7.57;;;;;;;10.52;100.00;99255.69;5021008;28;20041;-70
2022/05/10 01:56:13;;;;;;;9.70;7.55;;;;;;;10.48;100.00;99251.69;4984260;28;20116;-70
2022/05/10 01:58:41;;;;;;;12.35;8.10;;;;;;;10.37;100.00;99253.00;5031715;28;20029;-70
2022/05/10 02:01:11;;;;;;;11.20;8.32;;;;;;;10.40;100.00;99259.91;5026276;28;20622;-71
2022/05/10 02:03:43;;;;;;;9.27;8.00;;;;;;;10.33;100.00;99261.72;5031035;28;20032;-71
2022/05/10 02:06:19;;;;;;;8.75;7.45;;;;;;;10.24;100.00;99261.81;5031244;28;20025;-71
2022/05/10 02:08:59;;;;;;;11.75;7.85;;;;;;;10.26;100.00;99259.72;5026067;28;20502;-71
2022/05/10 02:11:25;;;;;;;14.20;8.35;;;;;;;10.19;100.00;99255.25;5032868;28;20033;-70
2022/05/10 02:13:58;;;;;;;13.80;8.63;;;;;;;10.30;100.00;99263.75;5030218;28;20029;-70
2022/05/10 02:16:42;;;;;;;11.07;8.30;;;;;;;10.22;100.00;99244.91;5041630;22;20471;-68
2022/05/10 02:19:16;;;;;;;11.65;8.50;;;;;;;10.33;100.00;99249.03;5032293;28;20466;-66
2022/05/10 02:21:47;;;;;;;12.80;7.97;;;;;;;10.29;100.00;99243.13;5012894;28;20032;-65
2022/05/10 02:24:33;;;;;;;11.25;8.68;;;;;;;10.35;100.00;99265.03;5009906;28;20022;-66
2022/05/10 02:27:06;;;;;;;11.10;7.95;;;;;;;10.43;100.00;99254.13;5008923;28;20445;-66
2022/05/10 02:29:41;;;;;;;10.35;7.50;;;;;;;10.38;100.00;99256.56;5000877;28;20026;-65
2022/05/10 02:35:02;;;;;;;11.18;7.88;;;;;;;10.51;100.00;99249.44;5002677;28;20505;-66
2022/05/10 02:37:27;;;;;;;11.57;8.38;;;;;;;10.35;100.00;99232.59;5000370;28;20030;-65
2022/05/10 02:39:53;;;;;;;9.48;7.68;;;;;;;10.39;100.00;99242.00;5006236;28;20038;-65
2022/05/10 02:42:21;;;;;;;10.43;7.38;;;;;;;10.45;100.00;99246.66;5009434;28;20487;-65
2022/05/10 02:44:50;;;;;;;10.93;7.47;;;;;;;10.55;100.00;99247.16;5012915;28;20040;-66
2022/05/10 02:47:27;;;;;;;11.63;7.88;;;;;;;10.50;100.00;99238.78;5002124;28;20037;-65
2022/05/10 02:49:52;;;;;;;9.00;7.68;;;;;;;10.51;100.00;99245.91;5004700;28;20041;-65
2022/05/10 02:52:17;;;;;;;11.20;7.60;;;;;;;10.58;100.00;99245.94;5012413;28;20026;-65
2022/05/10 02:54:43;;;;;;;10.20;8.13;;;;;;;10.61;100.00;99235.59;5008434;28;20053;-66
2022/05/10 02:57:08;;;;;;;8.38;6.75;;;;;;;10.41;100.00;99223.72;5009208;28;20022;-66
2022/05/10 02:59:37;;;;;;;9.57;7.70;;;;;;;10.27;100.00;99209.16;5006793;28;20058;-66
2022/05/10 03:02:28;;;;;;;9.75;7.07;;;;;;;10.44;100.00;99235.00;5007429;28;20032;-66
2022/05/10 03:04:58;;;;;;;11.15;7.60;;;;;;;10.30;100.00;99236.72;5006927;28;20590;-67
2022/05/10 03:07:25;;;;;;;11.70;7.18;;;;;;;10.21;100.00;99242.41;5010953;28;20026;-66
2022/05/10 03:09:51;;;;;;;8.95;6.78;;;;;;;10.10;100.00;99243.72;5011519;28;20032;-65
2022/05/10 03:12:16;;;;;;;8.02;6.85;;;;;;;9.97;100.00;99227.34;5005336;28;20033;-66
2022/05/10 03:14:42;;;;;;;10.13;8.15;;;;;;;9.96;100.00;99214.88;5011296;28;20124;-66
2022/05/10 03:17:10;;;;;;;11.13;7.53;;;;;;;10.11;100.00;99226.47;5005633;28;20117;-66
2022/05/10 03:19:38;;;;;;;12.38;7.72;;;;;;;9.99;100.00;99222.59;5001666;28;20029;-66
2022/05/10 03:22:04;;;;;;;9.98;8.00;;;;;;;10.01;100.00;99229.50;5012874;28;20029;-66
2022/05/10 03:24:30;;;;;;;11.93;8.32;;;;;;;9.82;100.00;99211.16;5009223;28;20053;-66
2022/05/10 03:26:57;;;;;;;10.77;7.97;;;;;;;9.87;100.00;99230.34;5003559;28;20033;-66
2022/05/10 03:29:22;;;;;;;11.88;8.25;;;;;;;9.80;100.00;99238.38;4999684;28;20025;-66
2022/05/10 03:31:48;;;;;;;13.48;8.43;;;;;;;9.56;100.00;99209.78;5011716;28;20462;-67
2022/05/10 03:36:57;;;;;;;16.58;9.43;;;;;;;9.68;100.00;99229.06;5007300;28;20131;-66
2022/05/10 03:39:23;;;;;;;11.18;8.40;;;;;;;9.72;100.00;99229.50;4997227;28;20057;-67
2022/05/10 03:41:48;;;;;;;11.23;8.65;;;;;;;9.72;100.00;99234.91;5020946;28;20034;-67
2022/05/10 03:44:13;;;;;;;10.45;8.43;;;;;;;9.68;100.00;99236.31;5004886;28;20029;-67
2022/05/10 03:46:39;;;;;;;16.30;9.30;;;;;;;9.68;100.00;99230.91;4994987;28;20022;-67
2022/05/10 03:49:04;;;;;;;10.93;8.73;;;;;;;9.70;100.00;99236.97;5004229;28;20037;-70
2022/05/10 03:51:30;;;;;;;11.23;8.32;;;;;;;9.71;100.00;99236.78;4999673;28;20034;-73
2022/05/10 03:53:56;;;;;;;10.85;8.20;;;;;;;9.66;100.00;99241.91;5008971;28;20034;-71
2022/05/10 03:56:21;;;;;;;12.65;9.90;;;;;;;9.61;100.00;99228.13;5006905;28;20404;-72
2022/05/10 03:58:47;;;;;;;11.55;9.32;;;;;;;9.68;100.00;99241.72;5005708;28;20026;-74
2022/05/10 04:01:13;;;;;;;13.85;10.05;;;;;;;9.36;100.00;99193.28;5004070;28;20036;-73
2022/05/10 04:03:38;;;;;;;17.58;10.27;;;;;;;9.32;100.00;99185.75;5004397;28;20034;-72
2022/05/10 04:06:04;;;;;;;16.02;9.30;;;;;;;9.52;100.00;99218.44;4996989;28;20504;-73
2022/05/10 04:08:30;;;;;;;14.48;9.80;;;;;;;9.70;100.00;99236.97;5009038;28;20029;-71
2022/05/10 04:11:01;;;;;;;15.30;9.82;;;;;;;9.76;100.00;99242.47;5010643;28;20021;-70
2022/05/10 04:13:26;;;;;;;13.68;9.55;;;;;;;9.78;100.00;99216.09;5012191;28;20026;-70
2022/05/10 04:15:51;;;;;;;12.02;9.10;;;;;;;9.70;100.00;99182.94;5012153;28;20038;-71
2022/05/10 04:18:17;;;;;;;11.85;9.50;;;;;;;10.08;100.00;99234.97;5003832;28;20037;-69
2022/05/10 04:20:42;;;;;;;12.90;9.60;;;;;;;9.93;100.00;99204.41;5023014;28;20022;-72
2022/05/10 04:23:08;;;;;;;11.52;7.90;;;;;;;9.99;100.00;99212.63;4999384;28;20352;-74
2022/05/10 04:25:34;;;;;;;10.27;7.93;;;;;;;10.21;100.00;99234.28;5023022;28;20033;-72
2022/05/10 04:27:59;;;;;;;10.60;8.15;;;;;;;10.17;100.00;99211.38;5019776;28;20116;-72
2022/05/10 04:30:24;;;;;;;12.50;6.97;;;;;;;10.18;100.00;99208.47;5012891;28;20049;-72
2022/05/10 04:32:50;;;;;;;11.10;7.68;;;;;;;10.30;100.00;99209.69;5007311;28;20045;-74
2022/05/10 04:35:15;;;;;;;12.15;8.65;;;;;;;10.47;100.00;99233.78;5011963;28;20113;-72
2022/05/10 04:37:40;;;;;;;11.38;8.35;;;;;;;10.67;100.00;99233.97;5017376;28;20073;-65
2022/05/10 04:42:52;;;;;;;10.13;6.65;;;;;;;11.09;100.00;99229.56;4999923;28;20037;-65
2022/05/10 04:45:18;;;;;;;11.45;6.97;;;;;;;11.13;98.43;99222.69;5000446;28;20498;-65
2022/05/10 04:47:43;;;;;;;8.77;6.80;;;;;;;11.37;98.22;99224.97;5006015;28;20038;-64
2022/05/10 04:50:10;;;;;;;12.27;7.55;;;;;;;11.55;97.88;99227.19;5002501;28;20538;-62
2022/05/10 04:52:35;;;;;;;16.02;7.70;;;;;;;11.77;97.41;99224.38;4998973;28;20026;-61
2022/05/10 04:55:01;;;;;;;11.43;7.95;;;;;;;11.83;96.68;99227.09;5003164;28;20507;-62
2022/05/10 04:57:26;;;;;;;10.00;7.93;;;;;;;11.90;95.90;99212.81;4997430;28;20042;-62
2022/05/10 04:59:52;;;;;;;11.00;7.40;;;;;;;12.17;94.50;99240.84;5001827;28;20534;-61
2022/05/10 05:02:17;;;;;;;10.90;6.95;;;;;;;12.24;93.04;99236.28;5001447;28;20017;-62
2022/05/10 05:04:42;;;;;;;7.53;6.13;;;;;;;12.28;93.34;99241.09;5006393;28;20033;-65
2022/05/10 05:07:09;;;;;;;11.73;7.30;;;;;;;12.29;92.12;99239.22;5009462;28;20101;-68
2022/05/10 05:09:34;;;;;;;8.18;5.78;;;;;;;12.36;92.62;99218.38;4992920;28;20034;-67
2022/05/10 05:12:00;;;;;;;11.43;6.40;;;;;;;12.63;90.83;99242.88;5008636;28;20108;-67
2022/05/10 05:14:25;;;;;;;9.25;6.85;;;;;;;12.75;90.19;99243.91;5004365;28;20080;-62
2022/05/10 05:16:53;;;;;;;8.05;6.60;;;;;;;12.88;88.42;99243.94;5001578;28;20030;-67
2022/05/10 05:19:19;;;;;;;10.40;7.80;;;;;;;12.93;87.40;99235.16;5009517;28;20029;-64
2022/05/10 05:21:44;;;;;;;9.68;7.10;;;;;;;13.20;87.81;99257.72;5005169;28;20498;-63
2022/05/10 05:24:11;;;;;;;8.63;7.43;;;;;;;13.23;87.85;99238.31;5009485;28;20013;-69
2022/05/10 05:26:36;;;;;;;12.40;7.18;;;;;;;13.51;86.57;99246.25;5010669;28;20073;-68
2022/05/10 05:29:02;;;;;;;10.00;7.40;;;;;;;13.76;85.81;99257.28;5000081;28;20402;-65
2022/05/10 05:31:28;;;;;;;10.68;7.80;;;;;;;13.89;85.41;99233.84;5009711;28;20045;-68
2022/05/10 05:33:54;;;;;;;9.73;6.68;;;;;;;14.19;85.41;99234.94;5005914;28;20057;-67
2022/05/10 05:36:19;;;;;;;8.32;6.80;;;;;;;14.69;83.88;99240.56;5006393;28;20076;-68
2022/05/10 05:38:45;;;;;;;8.25;7.10;;;;;;;15.04;81.97;99248.31;5016204;28;20038;-71
2022/05/10 05:41:10;;;;;;;8.95;7.15;;;;;;;15.31;81.06;99240.75;5010582;28;20033;-65
2022/05/10 05:43:35;;;;;;;9.15;8.05;;;;;;;15.55;78.99;99239.03;5009735;28;20072;-70
2022/05/10 05:46:05;;;;;;;10.35;7.65;;;;;;;15.69;76.61;99250.69;5009370;28;20112;-71
2022/05/10 05:48:30;;;;;;;;;;;;;;;15.84;76.37;99252.22;4997079;28;20161;-69
2022/05/10 05:50:55;;;;;;;13.43;6.75;;;;;;;15.78;74.80;99223.94;5000373;28;20008;-71
2022/05/10 05:53:20;;;;;;;11.18;7.60;;;;;;;16.10;75.14;99253.81;5010138;28;20030;-68
2022/05/10 05:55:48;;;;;;;9.13;7.40;;;;;;;16.06;74.85;99228.03;5008818;28;20042;-73
2022/05/10 05:58:14;;;;;;;10.43;7.53;;;;;;;16.23;76.06;99250.91;5000870;28;20033;-65
2022/05/10 06:00:40;;;;;;;9.27;7.07;;;;;;;16.35;75.64;99243.63;5000096;28;20026;-66
2022/05/10 06:03:06;;;;;;;10.80;6.20;;;;;;;16.73;74.86;99245.19;4999570;28;20017;-66
2022/05/10 06:05:32;;;;;;;11.93;7.38;;;;;;;16.97;74.41;99245.28;5008393;28;20022;-66
2022/05/10 06:07:58;;;;;;;8.55;6.90;;;;;;;17.26;71.26;99232.63;5000706;28;20037;-68
2022/05/10 06:10:23;;;;;;;9.80;6.57;;;;;;;17.57;69.68;99214.19;4995397;28;20022;-66
2022/05/10 06:12:48;;;;;;;9.50;7.30;;;;;;;17.83;66.96;99243.00;5001312;28;20030;-67
2022/05/10 06:15:17;;;;;;;9.50;6.88;;;;;;;17.86;66.06;99237.03;5005241;28;20038;-68
2022/05/10 06:17:45;;;;;;;9.53;7.00;;;;;;;18.42;64.26;99220.94;5005313;28;20057;-63
2022/05/10 06:20:12;;;;;;;10.35;7.32;;;;;;;18.86;61.76;99224.78;5009465;28;20034;-71
2022/05/10 06:22:43;;;;;;;8.70;7.20;;;;;;;19.27;61.35;99236.47;5001671;28;20049;-70
2022/05/10 06:25:10;;;;;;;10.32;7.15;;;;;;;19.82;58.67;99213.72;5021064;28;20022;-72
2022/05/10 06:27:35;;;;;;;10.93;6.53;;;;;;;20.74;55.39;99236.00;5006145;28;20021;-72
2022/05/10 06:30:01;;;;;;;12.90;7.55;;;;;;;21.67;53.95;99243.97;5009720;28;20084;-73
2022/05/10 06:32:27;;;;;;;10.32;7.03;;;;;;;21.60;53.73;99246.13;5023992;28;20036;-73
2022/05/10 06:34:53;;;;;;;8.93;6.15;;;;;;;23.03;50.74;99237.63;5018362;28;20048;-70
2022/05/10 06:40:06;;;;;;;11.32;6.70;;;;;;;24.84;46.33;99229.47;5012191;28;20121;-70
2022/05/10 06:42:31;;;;;;;13.02;7.10;;;;;;;25.64;44.56;99237.41;5003796;28;20535;-66
2022/05/10 06:44:56;;;;;;;10.82;6.80;;;;;;;25.94;43.89;99225.22;5000503;28;20142;-70
2022/05/10 06:47:22;;;;;;;15.52;7.43;;;;;;;26.40;43.66;99219.09;4998308;28;20061;-64
2022/05/10 06:49:47;;;;;;;8.32;6.22;;;;;;;26.45;43.61;99218.19;5001958;28;20018;-65
2022/05/10 06:52:16;;;;;;;15.50;6.50;;;;;;;27.62;41.20;99215.56;5008279;28;20033;-64
2022/05/10 06:54:41;;;;;;;;;;;;;;;27.68;40.21;99228.25;5007628;28;20037;-64
2022/05/10 06:57:07;;;;;;;13.18;6.97;;;;;;;27.91;40.76;99197.81;4996415;28;20013;-65
2022/05/10 06:59:32;;;;;;;12.18;7.50;;;;;;;28.86;38.83;99220.28;5005724;28;20395;-64
2022/05/10 07:01:58;;;;;;;9.65;6.72;;;;;;;28.73;38.80;99224.75;4998074;28;20031;-65
2022/05/10 07:04:23;;;;;;;9.10;6.00;;;;;;;29.77;37.01;99227.53;5002772;28;20732;-65
2022/05/10 07:06:48;;;;;;;10.18;6.35;;;;;;;29.04;36.13;99207.31;5007388;28;20028;-64
2022/05/10 07:09:14;;;;;;;8.48;6.13;;;;;;;29.28;36.17;99229.31;5004465;28;20631;-64
2022/05/10 07:11:39;;;;;;;13.10;6.05;;;;;;;28.44;35.92;99215.94;5004569;28;20030;-64
2022/05/10 07:14:05;;;;;;;9.65;5.72;;;;;;;28.65;36.67;99222.72;5001300;28;20033;-66
2022/05/10 07:16:30;;;;;;;8.65;5.78;;;;;;;28.38;36.27;99212.44;5004745;28;20458;-64
2022/05/10 07:18:56;;;;;;;13.55;6.50;;;;;;;27.85;36.97;99216.56;5012735;28;20072;-69
2022/05/10 07:21:21;;;;;;;6.47;5.75;;;;;;;28.00;36.79;99218.22;5005903;28;20038;-66
2022/05/10 07:23:46;;;;;;;14.75;6.10;;;;;;;28.41;36.69;99209.84;4999135;28;20030;-67
2022/05/10 07:26:12;;;;;;;8.15;5.53;;;;;;;29.72;34.13;99210.94;5004697;28;20388;-66
2022/05/10 07:28:37;;;;;;;10.20;5.63;;;;;;;30.88;32.08;99212.59;5008765;28;20022;-66
2022/05/10 07:31:02;;;;;;;9.00;5.18;;;;;;;30.87;31.75;99209.00;5001879;28;20436;-66
2022/05/10 07:33:28;;;;;;;7.50;5.20;;;;;;;30.48;31.96;99195.94;4993398;28;20034;-67
2022/05/10 07:38:39;;;;;;;6.95;4.75;;;;;;;31.14;31.25;99221.78;4993704;28;20066;-66
2022/05/10 07:41:05;;;;;;;7.25;4.65;;;;;;;31.49;30.11;99182.63;4993103;28;20097;-67
2022/05/10 07:43:36;;;;;;;8.52;5.78;;;;;;;29.77;31.97;99224.75;4993204;28;20030;-66
2022/05/10 07:46:02;;;;;;;7.10;4.93;;;;;;;31.08;30.77;99217.53;5003692;28;20041;-66
2022/05/10 07:48:27;;;;;;;9.55;5.15;;;;;;;29.97;32.18;99220.53;5027879;28;20395;-67
2022/05/10 07:50:53;;;;;;;7.93;5.47;;;;;;;30.23;32.11;99215.09;5008518;28;20109;-65
2022/05/10 07:53:18;;;;;;;6.03;4.75;;;;;;;30.02;32.01;99216.78;5004906;28;20026;-67
2022/05/10 07:55:47;;;;;;;7.57;5.05;;;;;;;31.49;29.87;99193.81;5010166;28;20368;-67
2022/05/10 07:58:12;;;;;;;8.07;5.47;;;;;;;31.32;29.91;99205.00;5005278;28;20475;-68
2022/05/10 08:00:41;;;;;;;5.90;5.30;;;;;;;30.76;31.13;99193.69;5012915;28;20041;-67
2022/05/10 08:03:15;;;;;;;7.93;5.10;;;;;;;31.58;30.41;99224.56;5009302;28;20022;-68
2022/05/10 08:05:41;;;;;;;6.05;5.40;;;;;;;30.56;31.68;99226.66;5001269;28;20510;-65
2022/05/10 08:08:07;;;;;;;10.40;6.35;;;;;;;29.86;32.92;99216.41;5003827;28;20034;-66
2022/05/10 08:10:33;;;;;;;12.32;5.68;;;;;;;31.03;31.48;99209.31;5002549;28;20022;-65
2022/05/10 08:12:58;;;;;;;10.43;6.10;;;;;;;31.45;31.37;99209.63;5001343;28;20025;-63
2022/05/10 08:15:24;;;;;;;9.82;5.43;;;;;;;32.24;30.43;99207.38;5001719;28;20042;-66
2022/05/10 08:17:49;;;;;;;7.57;5.65;;;;;;;31.63;31.53;99213.19;5036396;22;20229;-69
2022/05/10 08:20:15;;;;;;;7.80;6.30;;;;;;;31.95;30.26;99206.19;5028559;28;20489;-68
2022/05/10 08:22:41;;;;;;;6.63;5.55;;;;;;;32.75;29.64;99188.63;5026177;28;20029;-75
2022/05/10 08:25:07;;;;;;;6.53;5.57;;;;;;;32.84;29.84;99200.56;5020282;28;20116;-70
2022/05/10 08:27:32;;;;;;;7.88;5.75;;;;;;;32.05;30.58;99189.03;5020499;28;20026;-76
2022/05/10 08:29:58;;;;;;;7.30;5.45;;;;;;;32.97;29.01;99201.44;5005834;28;20542;-73
2022/05/10 08:32:23;;;;;;;8.85;6.35;;;;;;;30.26;32.24;99194.06;5007339;28;20033;-75
2022/05/10 08:34:49;;;;;;;9.50;5.07;;;;;;;32.62;30.68;99198.94;5023935;28;20208;-76
2022/05/10 08:37:14;;;;;;;6.53;5.43;;;;;;;32.83;29.53;99200.88;5031793;28;20391;-76
2022/05/10 08:39:39;;;;;;;10.50;5.45;;;;;;;33.45;28.50;99204.81;5009693;28;20093;-69
2022/05/10 08:42:22;;;;;;;7.20;5.40;;;;;;;32.30;30.26;99201.25;5010045;28;20022;-70
2022/05/10 08:44:58;;;;;;;7.97;6.15;;;;;;;33.60;27.50;99202.19;5007885;28;20495;-75
2022/05/10 08:47:25;;;;;;;6.72;5.80;;;;;;;32.35;29.52;99191.81;5016915;28;20396;-74
2022/05/10 08:50:00;;;;;;;7.10;5.18;;;;;;;33.32;28.46;99196.34;5012883;28;20030;-70
2022/05/10 08:52:32;;;;;;;8.77;5.10;;;;;;;32.96;28.23;99178.19;5012297;28;20379;-75
2022/05/10 08:54:58;;;;;;;6.53;4.93;;;;;;;33.70;26.97;99186.09;5013351;28;20026;-71
2022/05/10 08:57:28;;;;;;;10.50;6.13;;;;;;;32.73;28.38;99190.94;5005560;28;20025;-72
2022/05/10 09:00:11;;;;;;;6.65;4.38;;;;;;;33.97;27.07;99193.81;5016165;28;20030;-76
2022/05/10 09:02:54;;;;;;;5.82;4.07;;;;;;;34.56;26.52;99164.44;5015396;28;20029;-75
2022/05/10 09:05:28;;;;;;;6.13;4.43;;;;;;;35.17;26.53;99179.50;5014833;28;20036;-75
2022/05/10 09:08:20;;;;;;;7.95;4.80;;;;;;;34.73;26.45;99188.66;5014346;28;20037;-72
2022/05/10 09:10:52;;;;;;;6.75;4.50;;;;;;;34.78;26.27;99187.59;5009201;28;20459;-70
2022/05/10 09:13:20;;;;;;;5.28;4.53;;;;;;;33.08;27.89;99190.66;5008262;28;20070;-72
2022/05/10 09:15:59;;;;;;;6.43;4.40;;;;;;;33.24;28.28;99185.22;5006436;28;20483;-70
2022/05/10 09:18:27;;;;;;;7.57;5.32;;;;;;;32.94;28.18;99186.13;5012691;28;20516;-71
2022/05/10 09:21:16;;;;;;;5.20;4.32;;;;;;;33.99;27.49;99183.06;5015019;28;20025;-73
2022/05/10 09:24:02;;;;;;;5.57;4.25;;;;;;;33.65;28.08;99184.31;5014975;28;20030;-68
2022/05/10 09:26:42;;;;;;;5.40;4.28;;;;;;;33.25;28.33;99179.28;5015142;28;20434;-73
2022/05/10 09:29:13;;;;;;;8.10;5.03;;;;;;;34.78;26.26;99179.16;5012726;28;20030;-74
2022/05/10 09:37:19;;;;;;;5.00;4.43;;;;;;;34.94;25.90;99174.41;5005622;28;20048;-70
2022/05/10 09:39:59;;;;;;;6.65;4.50;;;;;;;34.36;26.10;99159.78;5006828;28;20566;-72
2022/05/10 09:42:40;;;;;;;6.43;4.40;;;;;;;34.99;25.56;99168.53;5012371;28;20036;-71
2022/05/10 09:45:22;;;;;;;5.45;3.97;;;;;;;35.18;25.74;99167.88;5020748;28;20030;-69
2022/05/10 09:48:11;;;;;;;5.03;3.83;;;;;;;36.17;23.52;99163.25;5001479;28;20030;-71
2022/05/10 09:50:39;;;;;;;4.85;3.50;;;;;;;36.18;24.11;99156.44;5004233;28;20412;-72
2022/05/10 09:53:15;;;;;;;4.10;3.45;;;;;;;36.58;23.65;99161.00;5007639;28;20030;-71
2022/05/10 09:56:27;;;;;;;5.40;3.85;;;;;;;37.24;20.98;99159.16;5002697;28;20144;-71
2022/05/10 09:59:04;;;;;;;4.15;3.50;;;;;;;37.01;22.76;99158.25;5007005;28;20037;-74
2022/05/10 10:01:42;;;;;;;4.03;3.58;;;;;;;36.41;22.57;99155.75;5009081;28;20041;-71
2022/05/10 10:04:25;;;;;;;5.25;3.28;;;;;;;36.21;22.82;99152.09;5008045;28;20021;-73
2022/05/10 10:07:07;;;;;;;5.40;4.00;;;;;;;35.27;24.07;99143.22;5010049;28;20127;-71
2022/05/10 10:09:35;;;;;;;5.20;3.80;;;;;;;36.06;24.09;99139.63;5007253;28;20044;-71
2022/05/10 10:12:02;;;;;;;5.95;2.95;;;;;;;36.75;23.09;99140.00;5011084;28;20497;-70
2022/05/10 10:14:41;;;;;;;3.90;3.28;;;;;;;37.36;21.69;99143.25;5011094;28;20034;-68
2022/05/10 10:17:16;;;;;;;3.70;2.65;;;;;;;37.43;21.59;99135.72;5013448;28;20029;-70
2022/05/10 10:19:47;;;;;;;4.68;2.90;;;;;;;36.41;22.13;99125.56;5011458;28;20108;-72
2022/05/10 10:22:18;;;;;;;5.18;3.20;;;;;;;34.94;23.85;99126.59;5011684;28;20360;-77
2022/05/10 10:24:56;;;;;;;5.32;3.20;;;;;;;35.16;22.95;99135.66;5013535;28;20033;-74
2022/05/10 10:27:44;;;;;;;4.03;3.35;;;;;;;34.17;24.51;99141.56;5012086;28;20502;-74
2022/05/10 10:30:39;;;;;;;3.72;2.90;;;;;;;34.70;25.20;99133.16;5013377;28;20526;-73
2022/05/10 10:33:25;;;;;;;4.97;3.40;;;;;;;34.32;24.39;99119.50;4996727;28;20042;-74
2022/05/10 10:35:55;;;;;;;6.65;3.03;;;;;;;34.60;24.87;99140.06;5006713;28;20033;-74
2022/05/10 10:38:45;;;;;;;3.05;2.60;;;;;;;35.55;23.00;99133.88;5013508;28;20036;-74
2022/05/10 10:41:18;;;;;;;3.50;2.50;;;;;;;36.89;21.52;99131.03;5013796;28;20033;-74
2022/05/10 10:44:08;;;;;;;5.32;2.80;;;;;;;37.55;20.78;99122.66;5014420;28;20022;-73
2022/05/10 10:46:39;;;;;;;3.50;2.60;;;;;;;38.85;19.57;99115.72;5026953;28;20092;-74
2022/05/10 10:49:14;;;;;;;3.35;2.50;;;;;;;37.03;21.22;99107.97;5021124;28;20531;-77
2022/05/10 10:51:40;;;;;;;5.25;2.85;;;;;;;36.58;21.97;99115.91;5008624;28;20030;-74
2022/05/10 10:54:14;;;;;;;5.28;2.95;;;;;;;35.19;22.51;99107.66;5006424;28;20040;-74
2022/05/10 10:56:57;;;;;;;2.90;2.42;;;;;;;36.29;22.04;99108.81;5010995;28;20109;-74
2022/05/10 10:59:56;;;;;;;6.60;2.65;;;;;;;36.58;20.96;99104.63;5007701;28;20041;-74
2022/05/10 11:02:30;;;;;;;3.33;2.47;;;;;;;35.86;22.17;99098.50;5009930;28;22438;-74
2022/05/10 11:05:23;;;;;;;3.13;2.63;;;;;;;36.01;20.83;99079.94;5020132;28;20083;-74
2022/05/10 11:08:11;;;;;;;3.60;2.47;;;;;;;36.37;21.06;99093.69;5009381;28;20121;-74
2022/05/10 11:10:54;;;;;;;3.33;2.20;;;;;;;36.49;21.54;99080.63;5006779;28;20545;-74
2022/05/10 11:13:44;;;;;;;7.32;2.33;;;;;;;35.67;22.66;99082.38;5010572;28;20048;-74
2022/05/10 11:16:25;;;;;;;4.63;2.58;;;;;;;35.37;22.02;99084.78;5009228;28;20029;-74
2022/05/10 11:18:58;;;;;;;6.47;2.55;;;;;;;35.45;23.05;99075.34;4999288;28;20030;-74
2022/05/10 11:21:47;;;;;;;5.72;2.80;;;;;;;37.04;20.86;99072.91;5009573;28;20022;-75
2022/05/10 11:24:31;;;;;;;2.60;2.10;;;;;;;37.18;20.65;99076.03;5006579;28;20026;-74
2022/05/10 11:27:27;;;;;;;2.38;2.00;;;;;;;37.16;19.21;99077.59;5004687;28;20084;-74
2022/05/10 11:30:09;;;;;;;3.17;2.00;;;;;;;36.99;19.30;99070.38;4999867;28;20452;-75
2022/05/10 11:33:17;;;;;;;3.63;1.50;;;;;;;37.13;17.89;99073.50;5022473;28;20973;-74
2022/05/10 11:36:01;;;;;;;3.95;2.08;;;;;;;36.58;20.31;99067.19;5002950;28;20033;-75
2022/05/10 11:38:48;;;;;;;2.50;2.00;;;;;;;36.07;19.63;99065.22;5007949;28;20026;-74
2022/05/10 11:41:41;;;;;;;3.70;2.22;;;;;;;34.85;20.73;99062.09;5005339;28;20054;-74
2022/05/10 11:44:25;;;;;;;3.17;2.28;;;;;;;33.56;22.12;99062.94;5017059;28;20061;-74
2022/05/10 11:47:17;;;;;;;3.42;2.33;;;;;;;33.28;22.50;99063.59;5009039;28;20041;-74
2022/05/10 11:50:17;;;;;;;2.83;2.38;;;;;;;34.10;22.48;99043.03;5005743;28;20119;-74
2022/05/10 11:53:11;;;;;;;3.75;2.50;;;;;;;34.56;21.94;99045.56;5008997;28;20041;-73
2022/05/10 11:55:54;;;;;;;2.60;2.28;;;;;;;35.84;20.27;99044.53;5016826;28;20391;-73
2022/05/10 11:58:23;;;;;;;3.75;2.40;;;;;;;36.33;19.57;99029.97;5019322;28;20033;-73
2022/05/10 12:00:51;;;;;;;3.13;2.70;;;;;;;35.86;20.22;99034.53;5010857;28;20116;-73
2022/05/10 12:03:38;;;;;;;3.78;2.20;;;;;;;35.23;21.26;99034.59;5006426;28;20022;-74
2022/05/10 12:06:34;;;;;;;2.53;2.33;;;;;;;35.79;20.84;99037.22;5007958;28;20030;-73
2022/05/10 12:09:04;;;;;;;3.05;2.50;;;;;;;35.97;20.20;99030.00;5005616;28;20550;-82
2022/05/10 12:11:32;;;;;;;3.67;2.65;;;;;;;36.43;20.22;99018.91;5007285;28;20929;-75